Time;durP1;ratioP1;P1;durP2;ratioP2;P2;SDS_P1;SDS_P2;PMS_P1;PMS_P2;Temp;Humidity;BMP_temperature;BMP_pressure;BME280_temperature;BME280_humidity;BME280_pressure;Samples;Min_cycle;Max_cycle;Signal;HPM_P1;HPM_P2
2023/07/12 00:00:52;;;;;;;12.35;5.13;;;26.90;93.00;;;;;;6241462;27;88570;-70
2023/07/12 00:03:54;;;;;;;11.80;4.63;;;26.90;93.40;;;;;;6244536;27;88979;-71
2023/07/12 00:06:56;;;;;;;10.32;4.20;;;26.90;93.70;;;;;;6250107;27;88347;-70
2023/07/12 00:10:00;;;;;;;8.23;4.10;;;26.90;93.70;;;;;;6245848;27;89051;-70
2023/07/12 00:13:02;;;;;;;6.80;4.05;;;26.90;93.90;;;;;;6239413;27;89052;-71
2023/07/12 00:16:10;;;;;;;8.48;3.70;;;26.90;93.90;;;;;;6241184;27;89985;-70
2023/07/12 00:19:15;;;;;;;6.50;3.35;;;26.80;94.00;;;;;;6250355;27;87971;-71
2023/07/12 00:22:17;;;;;;;5.85;4.00;;;26.80;94.20;;;;;;6255570;27;89360;-70
2023/07/12 00:25:23;;;;;;;7.40;4.50;;;26.80;94.40;;;;;;6240962;27;89029;-70
2023/07/12 00:28:27;;;;;;;7.35;3.60;;;26.80;94.50;;;;;;6246045;27;89394;-70
2023/07/12 00:31:29;;;;;;;9.45;4.25;;;26.80;95.00;;;;;;6239184;27;88108;-70
2023/07/12 00:34:31;;;;;;;7.70;3.50;;;26.80;94.90;;;;;;6250221;27;89549;-70
2023/07/12 00:37:32;;;;;;;7.40;3.80;;;26.80;94.80;;;;;;6246669;27;87444;-71
2023/07/12 00:41:01;;;;;;;5.53;3.38;;;26.80;94.80;;;;;;6245316;27;89197;-71
2023/07/12 00:44:08;;;;;;;5.80;3.42;;;26.80;94.90;;;;;;6245140;27;89065;-71
2023/07/12 00:47:14;;;;;;;8.88;3.60;;;26.80;94.80;;;;;;6242930;27;90305;-71
2023/07/12 00:50:19;;;;;;;4.22;3.20;;;26.80;94.90;;;;;;6246256;27;89181;-70
2023/07/12 00:53:23;;;;;;;4.40;2.95;;;26.80;94.70;;;;;;6240708;27;89158;-70
2023/07/12 00:56:28;;;;;;;3.88;2.80;;;26.90;94.50;;;;;;6237772;27;88535;-69
2023/07/12 00:59:31;;;;;;;4.72;3.00;;;26.80;94.30;;;;;;6248473;27;89109;-71
2023/07/12 01:02:33;;;;;;;8.38;3.25;;;26.90;94.30;;;;;;6247235;27;89356;-69
2023/07/12 01:05:36;;;;;;;3.67;2.45;;;26.80;94.30;;;;;;6251315;27;88051;-68
2023/07/12 01:08:41;;;;;;;3.35;2.28;;;26.90;94.30;;;;;;6257757;27;88376;-68
2023/07/12 01:11:46;;;;;;;4.57;2.72;;;26.90;94.30;;;;;;6244408;27;89048;-70
2023/07/12 01:14:48;;;;;;;6.13;2.72;;;26.90;94.30;;;;;;6248826;27;89074;-70
2023/07/12 01:17:50;;;;;;;6.82;3.45;;;26.90;94.30;;;;;;6243019;27;89956;-70
2023/07/12 01:21:06;;;;;;;4.38;2.90;;;26.90;94.30;;;;;;6250806;27;89130;-70
2023/07/12 01:24:08;;;;;;;4.57;2.65;;;26.90;94.40;;;;;;6252827;27;89376;-70
2023/07/12 01:27:15;;;;;;;3.67;2.47;;;26.90;94.30;;;;;;6249983;27;89112;-70
2023/07/12 01:30:19;;;;;;;3.53;2.35;;;26.90;94.20;;;;;;6255962;27;89399;-70
2023/07/12 01:33:21;;;;;;;5.22;3.08;;;26.90;94.10;;;;;;6258045;27;90436;-70
2023/07/12 01:36:26;;;;;;;7.75;5.00;;;26.90;94.20;;;;;;6253115;27;89152;-70
2023/07/12 01:39:28;;;;;;;6.00;4.50;;;26.90;94.80;;;;;;6256409;27;88344;-71
2023/07/12 01:42:30;;;;;;;4.65;4.20;;;26.90;95.40;;;;;;6245999;27;88985;-71
2023/07/12 01:45:32;;;;;;;7.28;4.90;;;26.90;95.50;;;;;;6245737;27;88022;-71
2023/07/12 01:48:34;;;;;;;5.95;4.32;;;26.90;95.70;;;;;;6245802;27;90506;-71
2023/07/12 01:51:37;;;;;;;5.45;4.10;;;27.00;95.90;;;;;;6239602;27;89563;-71
2023/07/12 01:54:39;;;;;;;5.93;3.20;;;26.90;96.00;;;;;;6248395;27;89110;-69
2023/07/12 01:57:41;;;;;;;5.05;3.22;;;27.00;95.90;;;;;;6256679;27;88294;-69
2023/07/12 02:00:43;;;;;;;5.25;3.40;;;27.00;95.80;;;;;;6251698;27;88407;-69
2023/07/12 02:03:45;;;;;;;5.53;3.47;;;27.00;95.70;;;;;;6243281;27;89145;-69
2023/07/12 02:06:49;;;;;;;3.40;2.65;;;26.90;95.70;;;;;;6243699;27;88496;-70
2023/07/12 02:10:10;;;;;;;4.80;2.70;;;27.00;95.70;;;;;;6250020;27;88386;-70
2023/07/12 02:13:12;;;;;;;4.72;2.95;;;26.90;95.60;;;;;;6250172;27;89085;-69
2023/07/12 02:16:14;;;;;;;4.93;2.75;;;26.90;95.60;;;;;;6244844;27;88862;-69
2023/07/12 02:19:16;;;;;;;5.95;3.22;;;26.90;95.80;;;;;;6252993;27;90018;-69
2023/07/12 02:22:19;;;;;;;3.97;2.60;;;26.90;95.70;;;;;;6251324;27;87882;-70
2023/07/12 02:25:21;;;;;;;2.95;2.20;;;27.00;95.60;;;;;;6246824;27;89153;-69
2023/07/12 02:28:23;;;;;;;4.15;2.60;;;26.90;95.50;;;;;;6245173;27;88233;-70
2023/07/12 02:31:26;;;;;;;4.72;2.83;;;26.90;95.40;;;;;;6240379;27;89938;-69
2023/07/12 02:34:28;;;;;;;6.93;3.13;;;26.90;95.30;;;;;;6245022;27;90439;-70
2023/07/12 02:37:32;;;;;;;4.22;2.70;;;27.00;95.40;;;;;;6247804;27;89000;-70
2023/07/12 02:40:34;;;;;;;4.63;2.40;;;27.00;95.40;;;;;;6247216;27;87561;-70
2023/07/12 02:43:36;;;;;;;3.80;2.20;;;27.00;95.40;;;;;;6243356;27;89061;-70
2023/07/12 02:46:38;;;;;;;3.75;2.22;;;26.90;95.50;;;;;;6252219;27;89046;-69
2023/07/12 02:49:40;;;;;;;3.85;2.28;;;27.00;95.50;;;;;;6244239;27;90015;-69
2023/07/12 02:52:44;;;;;;;3.92;2.28;;;27.00;95.50;;;;;;6237020;27;89075;-69
2023/07/12 02:55:48;;;;;;;4.72;2.38;;;26.90;95.60;;;;;;6249964;27;89018;-69
2023/07/12 02:58:50;;;;;;;3.90;2.20;;;26.90;95.60;;;;;;6248201;27;89059;-70
2023/07/12 03:01:52;;;;;;;4.72;2.53;;;26.90;95.70;;;;;;6247351;27;89233;-69
2023/07/12 03:04:54;;;;;;;3.50;2.20;;;26.90;95.60;;;;;;6259702;27;89006;-70
2023/07/12 03:07:58;;;;;;;7.82;2.47;;;26.90;95.60;;;;;;6256279;27;89083;-70
2023/07/12 03:11:00;;;;;;;3.60;2.22;;;26.90;95.60;;;;;;6250396;27;88360;-70
2023/07/12 03:14:02;;;;;;;3.35;2.10;;;26.90;95.50;;;;;;6250574;27;89361;-69
2023/07/12 03:17:05;;;;;;;3.17;1.90;;;26.90;95.50;;;;;;6249945;27;89480;-69
2023/07/12 03:20:11;;;;;;;3.75;2.05;;;26.90;95.60;;;;;;6259710;27;90250;-70
2023/07/12 03:23:15;;;;;;;3.97;1.90;;;26.90;95.60;;;;;;6251682;27;89122;-70
2023/07/12 03:26:17;;;;;;;3.40;1.90;;;26.90;95.50;;;;;;6254891;27;88239;-71
2023/07/12 03:29:19;;;;;;;4.53;2.50;;;26.90;95.60;;;;;;6256428;27;89414;-71
2023/07/12 03:32:21;;;;;;;3.80;2.08;;;26.90;95.70;;;;;;6245071;27;89059;-70
2023/07/12 03:35:23;;;;;;;4.65;2.28;;;26.90;95.70;;;;;;6252279;27;89078;-71
2023/07/12 03:38:28;;;;;;;3.03;2.10;;;26.90;95.90;;;;;;6247424;27;89257;-71
2023/07/12 03:41:30;;;;;;;3.60;2.28;;;26.90;95.80;;;;;;6259467;27;88435;-71
2023/07/12 03:44:32;;;;;;;2.78;1.92;;;26.90;95.70;;;;;;6256218;27;89038;-71
2023/07/12 03:51:31;;;;;;;3.75;2.05;;;26.90;95.80;;;;;;6244733;27;90078;-70
2023/07/12 03:54:34;;;;;;;4.55;2.28;;;26.90;95.70;;;;;;6260626;27;89097;-70
2023/07/12 03:57:41;;;;;;;3.05;2.03;;;26.90;95.50;;;;;;6250464;27;89124;-70
2023/07/12 04:00:44;;;;;;;2.88;2.00;;;26.90;95.40;;;;;;6248308;27;89001;-70
2023/07/12 04:03:47;;;;;;;3.65;2.58;;;26.90;95.30;;;;;;6248629;27;89076;-70
2023/07/12 04:06:49;;;;;;;4.75;2.20;;;26.90;95.60;;;;;;6253242;27;89064;-70
2023/07/12 04:09:52;;;;;;;3.28;2.40;;;26.90;96.30;;;;;;6253455;27;89365;-69
2023/07/12 04:12:54;;;;;;;3.97;2.10;;;26.90;96.50;;;;;;6252254;27;88802;-70
2023/07/12 04:15:58;;;;;;;2.53;1.85;;;26.90;96.40;;;;;;6244116;27;87819;-70
2023/07/12 04:19:00;;;;;;;3.47;2.17;;;26.90;96.30;;;;;;6248230;27;89127;-70
2023/07/12 04:22:02;;;;;;;5.05;2.20;;;26.90;96.10;;;;;;6251561;27;88594;-71
2023/07/12 04:25:08;;;;;;;3.42;2.13;;;26.90;96.10;;;;;;6247830;27;89082;-70
2023/07/12 04:28:10;;;;;;;3.22;2.08;;;26.90;95.90;;;;;;6249978;27;89144;-71
2023/07/12 04:31:13;;;;;;;4.43;2.45;;;26.90;95.90;;;;;;6248052;27;90628;-70
2023/07/12 04:34:15;;;;;;;4.03;2.15;;;26.90;95.90;;;;;;6246731;28;89155;-70
2023/07/12 04:37:17;;;;;;;4.50;2.10;;;26.90;95.90;;;;;;6250315;27;89054;-69
2023/07/12 04:40:21;;;;;;;4.05;2.28;;;26.90;95.90;;;;;;6254292;27;88476;-69
2023/07/12 04:43:23;;;;;;;3.45;2.20;;;26.90;96.10;;;;;;6247616;27;87234;-69
2023/07/12 04:46:25;;;;;;;3.90;2.15;;;26.90;96.50;;;;;;6245988;27;89278;-69
2023/07/12 04:49:27;;;;;;;6.32;2.38;;;26.90;96.70;;;;;;6240889;27;88730;-69
2023/07/12 04:52:29;;;;;;;4.45;2.03;;;26.90;97.00;;;;;;6249124;27;89972;-69
2023/07/12 04:55:32;;;;;;;4.88;2.35;;;26.90;96.90;;;;;;6253789;27;89111;-69
2023/07/12 04:58:34;;;;;;;3.90;2.40;;;26.90;96.70;;;;;;6263199;27;89025;-69
2023/07/12 05:01:36;;;;;;;5.30;2.30;;;27.00;96.70;;;;;;6263444;27;89080;-69
2023/07/12 05:04:38;;;;;;;4.10;2.03;;;26.90;96.90;;;;;;6263628;27;89233;-69
2023/07/12 05:07:41;;;;;;;3.33;2.00;;;26.90;97.10;;;;;;6255553;27;89067;-69
2023/07/12 05:10:44;;;;;;;5.93;2.00;;;26.90;97.80;;;;;;6248274;27;89118;-69
2023/07/12 05:13:46;;;;;;;6.07;2.25;;;26.90;98.30;;;;;;6259382;27;88640;-69
2023/07/12 05:16:48;;;;;;;5.05;2.60;;;26.90;98.20;;;;;;6275581;27;90495;-69
2023/07/12 05:19:50;;;;;;;5.40;2.78;;;26.90;97.70;;;;;;6254501;27;87939;-70
2023/07/12 05:22:52;;;;;;;3.03;2.00;;;26.90;97.20;;;;;;6254176;27;90154;-70
2023/07/12 05:25:56;;;;;;;5.00;2.15;;;26.90;97.30;;;;;;6252655;27;90451;-69
2023/07/12 05:28:58;;;;;;;6.82;2.35;;;26.80;97.40;;;;;;6246635;27;89414;-69
2023/07/12 05:32:00;;;;;;;3.38;2.10;;;26.80;97.10;;;;;;6248200;27;88973;-69
2023/07/12 05:35:03;;;;;;;3.72;2.00;;;26.90;97.40;;;;;;6254567;27;89080;-69
2023/07/12 05:38:05;;;;;;;2.63;2.00;;;26.90;96.90;;;;;;6243389;27;91553;-69
2023/07/12 05:41:09;;;;;;;3.53;2.00;;;26.90;96.70;;;;;;6272301;27;89138;-69
2023/07/12 05:44:11;;;;;;;4.72;2.33;;;26.90;96.50;;;;;;6264979;27;88658;-69
2023/07/12 05:47:13;;;;;;;4.60;2.03;;;26.90;96.50;;;;;;6252622;27;90157;-69
2023/07/12 05:50:17;;;;;;;4.25;1.88;;;26.90;96.50;;;;;;6245752;27;87967;-68
2023/07/12 05:53:19;;;;;;;2.65;1.88;;;26.90;96.50;;;;;;6271142;27;89881;-69
2023/07/12 05:56:23;;;;;;;2.63;1.88;;;27.00;96.50;;;;;;6260436;27;89125;-69
2023/07/12 05:59:25;;;;;;;4.25;2.30;;;26.90;96.50;;;;;;6270981;27;88337;-69
2023/07/12 06:02:27;;;;;;;2.38;1.95;;;27.00;96.80;;;;;;6257342;27;89129;-69
2023/07/12 06:05:28;;;;;;;4.63;2.40;;;27.00;97.20;;;;;;6263446;27;88957;-69
2023/07/12 06:08:30;;;;;;;2.90;2.22;;;27.00;97.60;;;;;;6267403;27;89084;-69
2023/07/12 06:11:34;;;;;;;3.50;2.03;;;27.00;97.60;;;;;;6271145;27;89100;-69
2023/07/12 06:14:36;;;;;;;3.90;2.30;;;27.00;97.50;;;;;;6264522;27;88318;-69
2023/07/12 06:17:38;;;;;;;3.80;2.20;;;27.00;97.50;;;;;;6270782;27;89066;-69
2023/07/12 06:20:40;;;;;;;5.43;2.10;;;27.00;98.00;;;;;;6271003;27;89110;-68
2023/07/12 06:23:42;;;;;;;5.47;2.10;;;27.00;98.00;;;;;;6251698;27;90261;-68
2023/07/12 06:26:45;;;;;;;4.28;2.10;;;27.00;97.70;;;;;;6255792;27;88968;-68
2023/07/12 06:29:48;;;;;;;3.10;1.90;;;26.90;97.70;;;;;;6250680;27;88331;-68
2023/07/12 06:33:09;;;;;;;3.58;2.28;;;27.00;97.50;;;;;;6267289;27;87915;-68
2023/07/12 06:36:10;;;;;;;4.38;2.20;;;27.00;97.60;;;;;;6257902;27;89054;-68
2023/07/12 06:39:12;;;;;;;3.90;2.08;;;27.00;97.80;;;;;;6256882;27;88142;-68
2023/07/12 06:42:16;;;;;;;4.57;2.00;;;27.00;98.00;;;;;;6258453;27;89201;-68
2023/07/12 06:45:18;;;;;;;2.92;1.90;;;27.00;98.00;;;;;;6260203;27;88366;-68
2023/07/12 06:48:20;;;;;;;4.88;2.30;;;27.00;97.80;;;;;;6267490;27;89045;-68
2023/07/12 06:51:22;;;;;;;4.00;2.28;;;27.00;98.00;;;;;;6260132;27;88993;-68
2023/07/12 06:54:24;;;;;;;5.47;2.35;;;27.00;98.10;;;;;;6261066;27;90117;-67
2023/07/12 06:57:27;;;;;;;3.10;2.05;;;27.00;98.40;;;;;;6258159;27;88981;-68
2023/07/12 07:00:29;;;;;;;4.20;2.20;;;27.00;98.20;;;;;;6246736;27;89529;-68
2023/07/12 07:03:31;;;;;;;3.00;2.15;;;26.90;97.90;;;;;;6236370;27;89370;-68
2023/07/12 07:06:33;;;;;;;3.92;2.15;;;26.90;98.00;;;;;;6236685;27;88977;-68
2023/07/12 07:09:38;;;;;;;3.25;2.00;;;26.90;98.00;;;;;;6257116;27;89283;-68
2023/07/12 07:12:41;;;;;;;3.20;2.28;;;26.90;97.80;;;;;;6251657;27;89066;-68
2023/07/12 07:15:45;;;;;;;4.50;2.40;;;26.90;97.60;;;;;;6253135;27;88397;-68
2023/07/12 07:18:49;;;;;;;4.85;2.38;;;27.00;98.00;;;;;;6254609;27;89430;-68
2023/07/12 07:21:51;;;;;;;3.47;2.10;;;26.90;98.10;;;;;;6255150;27;89038;-68
2023/07/12 07:24:53;;;;;;;5.88;2.65;;;26.90;98.00;;;;;;6240234;27;90014;-68
2023/07/12 07:27:56;;;;;;;4.47;2.58;;;27.00;98.00;;;;;;6256275;27;89095;-68
2023/07/12 07:31:00;;;;;;;2.97;2.20;;;27.00;98.10;;;;;;6245555;27;89533;-68
2023/07/12 07:34:02;;;;;;;6.43;2.53;;;27.00;98.20;;;;;;6244708;28;89090;-68
2023/07/12 07:37:04;;;;;;;4.38;2.40;;;27.00;98.60;;;;;;6256433;27;88973;-68
2023/07/12 07:40:08;;;;;;;3.67;2.30;;;27.00;98.60;;;;;;6247144;27;88953;-68
2023/07/12 07:43:14;;;;;;;3.22;2.25;;;27.00;98.50;;;;;;6254246;27;89174;-68
2023/07/12 07:46:17;;;;;;;3.20;2.45;;;27.00;98.50;;;;;;6264627;27;88442;-68
2023/07/12 07:49:19;;;;;;;4.75;2.40;;;27.00;98.50;;;;;;6249002;27;89440;-69
2023/07/12 07:52:20;;;;;;;4.90;2.50;;;27.00;98.50;;;;;;6254672;27;89149;-68
2023/07/12 07:55:22;;;;;;;3.15;2.25;;;27.00;98.60;;;;;;6254883;27;90179;-69
2023/07/12 07:58:26;;;;;;;4.38;2.83;;;27.00;98.60;;;;;;6256416;27;89051;-69
2023/07/12 08:01:28;;;;;;;4.00;2.40;;;27.00;98.70;;;;;;6256754;27;87979;-68
2023/07/12 08:04:31;;;;;;;4.50;2.75;;;26.90;98.70;;;;;;6259576;27;89800;-68
2023/07/12 08:07:39;;;;;;;4.40;2.60;;;27.00;98.80;;;;;;6260719;27;89024;-69
2023/07/12 08:10:41;;;;;;;3.28;2.55;;;27.00;99.50;;;;;;6269606;27;89062;-69
2023/07/12 08:13:44;;;;;;;4.10;2.50;;;27.00;99.60;;;;;;6260730;27;89096;-69
2023/07/12 08:16:46;;;;;;;3.72;2.67;;;27.00;99.80;;;;;;6267315;27;87422;-69
2023/07/12 08:19:50;;;;;;;4.00;2.70;;;27.00;99.90;;;;;;6264087;27;87992;-69
2023/07/12 08:22:53;;;;;;;4.68;2.67;;;27.00;99.90;;;;;;6257398;27;89304;-68
2023/07/12 08:25:55;;;;;;;4.63;2.70;;;27.00;99.90;;;;;;6257206;27;90021;-68
2023/07/12 08:28:59;;;;;;;3.65;2.70;;;27.00;99.90;;;;;;6255685;27;88052;-69
2023/07/12 08:32:01;;;;;;;3.97;2.83;;;27.00;99.90;;;;;;6263491;27;89439;-68
2023/07/12 08:35:04;;;;;;;4.75;3.17;;;27.00;99.90;;;;;;6266404;27;89154;-69
2023/07/12 08:38:06;;;;;;;4.55;2.83;;;27.00;99.90;;;;;;6268577;27;89001;-68
2023/07/12 08:41:15;;;;;;;5.10;2.85;;;27.00;99.90;;;;;;6258489;27;89051;-69
2023/07/12 08:44:19;;;;;;;4.95;2.90;;;27.00;99.90;;;;;;6250279;27;89104;-69
2023/07/12 08:47:25;;;;;;;4.78;3.30;;;27.00;99.90;;;;;;6254872;27;88233;-68
2023/07/12 08:50:32;;;;;;;4.82;3.65;;;27.00;99.90;;;;;;6252139;27;89039;-69
2023/07/12 08:53:35;;;;;;;4.65;3.22;;;27.00;99.90;;;;;;6248097;27;89096;-68
2023/07/12 08:56:38;;;;;;;4.90;3.25;;;27.00;99.90;;;;;;6242188;27;90077;-69
2023/07/12 08:59:42;;;;;;;4.22;2.95;;;27.00;99.90;;;;;;6244423;27;89202;-69
2023/07/12 09:02:44;;;;;;;4.13;3.10;;;27.00;99.90;;;;;;6253222;27;90766;-68
2023/07/12 09:05:46;;;;;;;3.55;3.00;;;27.00;99.90;;;;;;6252819;27;87839;-68
2023/07/12 09:08:53;;;;;;;5.63;3.10;;;27.00;99.90;;;;;;6238627;27;89186;-68
2023/07/12 09:11:56;;;;;;;5.30;3.25;;;27.00;99.90;;;;;;6246265;27;89529;-68
2023/07/12 09:15:01;;;;;;;3.92;3.22;;;27.00;99.90;;;;;;6243833;27;89169;-68
2023/07/12 09:18:07;;;;;;;4.03;2.88;;;27.00;99.90;;;;;;6255111;27;88288;-68
2023/07/12 09:21:14;;;;;;;4.90;2.92;;;27.00;99.90;;;;;;6242933;27;89355;-69
2023/07/12 09:24:21;;;;;;;4.88;2.97;;;27.00;99.90;;;;;;6236527;27;89145;-68
2023/07/12 09:27:24;;;;;;;4.50;2.90;;;26.90;99.90;;;;;;6254789;27;90138;-69
2023/07/12 09:30:29;;;;;;;4.25;2.72;;;27.00;99.90;;;;;;6253786;27;89105;-68
2023/07/12 09:33:35;;;;;;;3.92;2.97;;;27.00;99.90;;;;;;6258073;27;89639;-68
2023/07/12 09:36:40;;;;;;;4.65;2.75;;;27.00;99.90;;;;;;6238000;27;89083;-68
2023/07/12 09:39:52;;;;;;;4.47;2.75;;;27.00;99.80;;;;;;6256111;27;88560;-69
2023/07/12 09:42:58;;;;;;;3.30;2.60;;;27.00;99.70;;;;;;6252177;27;90351;-68
2023/07/12 09:46:19;;;;;;;3.95;2.80;;;26.90;98.80;;;;;;6256278;27;87972;-69
2023/07/12 09:49:24;;;;;;;4.85;2.85;;;26.90;97.40;;;;;;6250268;27;88611;-69
2023/07/12 09:52:31;;;;;;;3.55;2.60;;;27.00;96.30;;;;;;6251354;27;89409;-68
2023/07/12 09:55:39;;;;;;;4.57;2.72;;;27.00;96.20;;;;;;6256679;27;87930;-68
2023/07/12 09:58:54;;;;;;;4.20;2.50;;;26.90;96.60;;;;;;6247557;27;90016;-68
2023/07/12 10:02:04;;;;;;;3.35;2.50;;;26.90;97.40;;;;;;6257045;27;89097;-68
2023/07/12 10:05:12;;;;;;;2.88;2.47;;;26.90;95.50;;;;;;6257111;27;89329;-68
2023/07/12 10:08:17;;;;;;;4.18;2.50;;;26.90;95.10;;;;;;6257245;27;88270;-68
2023/07/12 10:11:28;;;;;;;2.67;2.45;;;26.90;95.00;;;;;;6251548;27;87993;-68
2023/07/12 10:14:35;;;;;;;4.97;2.60;;;26.90;96.10;;;;;;6250900;27;89059;-68
2023/07/12 10:17:43;;;;;;;3.20;2.60;;;26.90;96.10;;;;;;6259911;27;87627;-68
2023/07/12 10:20:47;;;;;;;4.43;2.85;;;26.90;96.30;;;;;;6254424;27;88495;-68
2023/07/12 10:23:53;;;;;;;3.17;2.58;;;26.90;96.50;;;;;;6255843;27;89140;-68
2023/07/12 10:26:55;;;;;;;3.45;2.40;;;26.90;96.10;;;;;;6258812;27;88975;-68
2023/07/12 10:30:09;;;;;;;3.55;2.53;;;26.90;96.50;;;;;;6250595;27;90036;-68
2023/07/12 10:33:18;;;;;;;4.32;2.50;;;26.90;97.40;;;;;;6253601;27;89095;-68
2023/07/12 10:36:24;;;;;;;3.88;2.50;;;26.90;95.80;;;;;;6257163;27;89525;-68
2023/07/12 10:39:28;;;;;;;3.22;2.35;;;26.90;95.90;;;;;;6252429;27;87921;-68
2023/07/12 10:43:14;;;;;;;3.90;2.88;;;26.90;95.90;;;;;;6264209;27;89198;-68
2023/07/12 10:46:21;;;;;;;3.70;2.50;;;26.90;95.70;;;;;;6245179;27;88998;-68
2023/07/12 10:49:43;;;;;;;2.50;2.25;;;26.90;95.40;;;;;;6255835;27;88948;-68
2023/07/12 10:52:59;;;;;;;3.78;2.58;;;26.90;95.00;;;;;;6248274;27;88343;-68
2023/07/12 10:56:17;;;;;;;2.92;2.40;;;26.90;94.70;;;;;;6253592;27;88848;-68
2023/07/12 10:59:44;;;;;;;4.60;2.40;;;26.90;95.40;;;;;;6250200;27;88995;-68
2023/07/12 11:02:49;;;;;;;3.80;2.25;;;26.90;94.50;;;;;;6251204;27;90079;-68
2023/07/12 11:06:20;;;;;;;4.65;2.72;;;26.90;94.50;;;;;;6251365;27;89080;-68
2023/07/12 11:09:23;;;;;;;6.20;2.90;;;26.90;95.00;;;;;;6242162;27;89226;-67
2023/07/12 11:12:37;;;;;;;5.93;2.60;;;26.90;95.50;;;;;;6248567;27;89584;-67
2023/07/12 11:15:59;;;;;;;5.15;2.40;;;27.00;95.90;;;;;;6252903;27;89268;-68
2023/07/12 11:19:02;;;;;;;5.72;2.42;;;26.90;94.30;;;;;;6247355;27;89425;-68
2023/07/12 11:22:13;;;;;;;3.38;2.30;;;26.90;94.70;;;;;;6241649;27;88912;-68
2023/07/12 11:25:37;;;;;;;4.22;2.38;;;26.90;94.70;;;;;;6239966;27;87267;-67
2023/07/12 11:28:42;;;;;;;4.60;2.60;;;27.00;95.00;;;;;;6232200;27;89532;-66
2023/07/12 11:31:49;;;;;;;7.05;2.60;;;27.00;95.40;;;;;;6246051;27;89167;-68
2023/07/12 11:34:57;;;;;;;5.95;2.63;;;26.90;95.20;;;;;;6247544;27;90192;-67
2023/07/12 11:38:03;;;;;;;4.47;2.40;;;27.00;95.30;;;;;;6251760;27;89096;-68
2023/07/12 11:41:07;;;;;;;4.40;2.50;;;26.90;95.40;;;;;;6253786;27;88802;-68
2023/07/12 11:44:17;;;;;;;3.60;2.50;;;27.00;94.90;;;;;;6242556;27;89124;-68
2023/07/12 11:47:20;;;;;;;4.13;2.67;;;27.00;94.80;;;;;;6253124;27;89022;-68
2023/07/12 11:50:25;;;;;;;3.03;2.38;;;27.00;95.00;;;;;;6242447;27;89188;-67
2023/07/12 11:53:29;;;;;;;3.72;2.70;;;27.00;95.10;;;;;;6234290;27;88727;-67
2023/07/12 11:56:31;;;;;;;5.47;2.58;;;27.00;94.50;;;;;;6242268;27;88571;-67
2023/07/12 11:59:36;;;;;;;2.75;2.38;;;27.00;93.90;;;;;;6235379;27;89096;-69
2023/07/12 12:02:38;;;;;;;2.70;2.38;;;27.00;93.80;;;;;;6248979;27;87881;-68
2023/07/12 12:05:41;;;;;;;3.90;2.28;;;27.00;93.90;;;;;;6248086;27;90058;-68
2023/07/12 12:08:50;;;;;;;4.45;2.50;;;27.00;93.90;;;;;;6249169;27;89853;-68
2023/07/12 12:11:54;;;;;;;4.03;3.00;;;27.00;94.20;;;;;;6250407;27;89105;-68
2023/07/12 12:14:57;;;;;;;2.40;2.20;;;27.00;94.30;;;;;;6246211;27;89007;-68
2023/07/12 12:18:06;;;;;;;2.28;2.08;;;27.00;94.20;;;;;;6250598;27;89405;-68
2023/07/12 12:21:16;;;;;;;3.22;2.35;;;27.10;94.00;;;;;;6244830;27;89094;-68
2023/07/12 12:24:21;;;;;;;2.75;2.35;;;27.10;93.60;;;;;;6248810;27;89146;-67
2023/07/12 12:27:30;;;;;;;2.78;2.38;;;27.00;93.60;;;;;;6246005;27;88329;-67
2023/07/12 12:30:33;;;;;;;2.20;2.00;;;27.00;92.10;;;;;;6239457;27;89035;-67
2023/07/12 12:33:35;;;;;;;2.70;2.15;;;27.00;92.40;;;;;;6245267;27;89049;-69
2023/07/12 12:36:37;;;;;;;2.78;2.20;;;27.10;92.50;;;;;;6238520;27;90067;-69
2023/07/12 12:39:41;;;;;;;3.45;2.25;;;27.10;92.70;;;;;;6251177;27;89104;-68
2023/07/12 12:42:54;;;;;;;2.42;2.22;;;27.00;92.70;;;;;;6249763;27;88967;-68
2023/07/12 12:45:56;;;;;;;2.83;2.28;;;27.00;92.70;;;;;;6248942;27;89108;-68
2023/07/12 12:48:58;;;;;;;3.40;2.30;;;27.00;92.60;;;;;;6241661;27;87919;-68
2023/07/12 12:52:21;;;;;;;2.75;2.10;;;27.10;92.70;;;;;;6245471;27;88944;-68
2023/07/12 12:55:25;;;;;;;3.15;2.33;;;27.10;92.70;;;;;;6230398;27;89076;-69
2023/07/12 12:58:26;;;;;;;3.03;2.10;;;27.00;92.80;;;;;;6239421;27;88287;-69
2023/07/12 13:01:28;;;;;;;2.55;2.20;;;27.10;92.90;;;;;;6255468;27;88125;-69
2023/07/12 13:04:31;;;;;;;2.33;2.13;;;27.10;93.00;;;;;;6253474;27;89047;-69
2023/07/12 13:07:36;;;;;;;4.03;2.22;;;27.10;93.10;;;;;;6251070;27;90046;-69
2023/07/12 13:10:39;;;;;;;2.45;2.10;;;27.10;93.10;;;;;;6249915;27;89100;-69
2023/07/12 13:13:42;;;;;;;3.30;2.15;;;27.10;93.00;;;;;;6247466;27;89608;-69
2023/07/12 13:16:44;;;;;;;2.38;2.05;;;27.10;92.70;;;;;;6255941;27;89448;-69
2023/07/12 13:19:48;;;;;;;2.55;2.05;;;27.10;92.60;;;;;;6255610;27;89000;-69
2023/07/12 13:22:50;;;;;;;2.30;2.10;;;27.00;92.50;;;;;;6256041;27;89318;-69
2023/07/12 13:25:56;;;;;;;2.10;1.90;;;27.10;92.40;;;;;;6245375;27;89224;-69
2023/07/12 13:28:58;;;;;;;2.38;1.77;;;27.10;92.20;;;;;;6245844;27;88794;-69
2023/07/12 13:32:00;;;;;;;2.38;2.00;;;27.10;92.00;;;;;;6248299;27;88968;-68
2023/07/12 13:35:02;;;;;;;3.22;2.13;;;27.10;92.00;;;;;;6240147;27;89093;-69
2023/07/12 13:38:04;;;;;;;2.83;2.22;;;27.00;91.70;;;;;;6254532;27;90326;-69
2023/07/12 13:41:12;;;;;;;2.47;1.92;;;27.10;91.70;;;;;;6248957;27;88081;-69
2023/07/12 13:44:17;;;;;;;4.10;2.45;;;27.10;91.90;;;;;;6249614;27;89112;-69
2023/07/12 13:47:21;;;;;;;2.88;1.92;;;27.10;92.10;;;;;;6255799;27;89329;-69
2023/07/12 13:50:23;;;;;;;1.98;1.77;;;27.10;92.10;;;;;;6254893;27;89116;-67
2023/07/12 13:53:25;;;;;;;2.55;2.05;;;27.10;92.10;;;;;;6246712;27;89057;-67
2023/07/12 13:56:28;;;;;;;3.33;2.10;;;27.10;91.60;;;;;;6254348;27;89132;-67
2023/07/12 13:59:30;;;;;;;2.13;1.83;;;27.10;91.10;;;;;;6256093;27;88480;-68
2023/07/12 14:02:34;;;;;;;4.38;1.90;;;27.10;90.70;;;;;;6267855;27;88069;-68
2023/07/12 14:05:36;;;;;;;3.47;2.10;;;27.10;90.60;;;;;;6254455;27;89019;-68
2023/07/12 14:08:39;;;;;;;2.63;2.40;;;27.10;90.30;;;;;;6266117;27;90414;-68
2023/07/12 14:11:42;;;;;;;4.15;2.30;;;27.10;90.20;;;;;;6264688;27;88940;-68
2023/07/12 14:14:45;;;;;;;2.65;2.20;;;27.10;90.10;;;;;;6256079;27;88979;-68
2023/07/12 14:17:48;;;;;;;3.33;2.30;;;27.10;89.70;;;;;;6267317;27;89172;-68
2023/07/12 14:20:50;;;;;;;2.92;2.20;;;27.20;89.90;;;;;;6256001;27;89096;-68
2023/07/12 14:23:52;;;;;;;2.55;2.10;;;27.10;89.80;;;;;;6252982;27;89019;-68
2023/07/12 14:26:56;;;;;;;2.00;1.90;;;27.10;90.00;;;;;;6237701;27;89065;-69
2023/07/12 14:30:00;;;;;;;2.42;1.75;;;27.20;90.10;;;;;;6249859;27;88428;-68
2023/07/12 14:33:04;;;;;;;2.97;2.25;;;27.10;90.20;;;;;;6258116;27;88942;-68
2023/07/12 14:36:06;;;;;;;3.85;2.47;;;27.10;90.20;;;;;;6261427;27;88090;-68
2023/07/12 14:39:08;;;;;;;2.78;2.35;;;27.10;89.90;;;;;;6241234;27;90038;-68
2023/07/12 14:42:16;;;;;;;3.38;2.20;;;27.20;89.40;;;;;;6241749;27;88733;-68
2023/07/12 14:45:20;;;;;;;2.50;2.30;;;27.20;89.10;;;;;;6257695;27;89606;-69
2023/07/12 14:48:22;;;;;;;2.95;2.40;;;27.10;89.10;;;;;;6268113;27;89406;-68
2023/07/12 14:51:25;;;;;;;3.42;2.33;;;27.20;89.80;;;;;;6256339;27;89531;-68
2023/07/12 14:54:27;;;;;;;2.95;2.20;;;27.20;89.50;;;;;;6248492;27;89435;-68
2023/07/12 14:57:31;;;;;;;3.38;2.30;;;27.20;89.40;;;;;;6253757;27;88162;-69
2023/07/12 15:00:33;;;;;;;3.17;2.30;;;27.20;89.20;;;;;;6254836;27;88555;-68
2023/07/12 15:03:35;;;;;;;3.70;2.35;;;27.20;89.00;;;;;;6249271;27;89145;-68
2023/07/12 15:06:38;;;;;;;3.50;2.30;;;27.20;88.30;;;;;;6254118;27;88990;-68
2023/07/12 15:09:40;;;;;;;4.63;2.35;;;27.20;88.00;;;;;;6258111;27;90102;-69
2023/07/12 15:12:47;;;;;;;2.83;2.22;;;27.20;88.00;;;;;;6254202;27;89405;-68
2023/07/12 15:15:51;;;;;;;2.45;2.25;;;27.20;87.90;;;;;;6257315;27;87754;-68
2023/07/12 15:18:54;;;;;;;2.80;2.40;;;27.20;87.80;;;;;;6248337;27;89386;-69
2023/07/12 15:21:56;;;;;;;3.63;2.35;;;27.20;88.20;;;;;;6254215;27;88090;-69
2023/07/12 15:24:59;;;;;;;2.95;2.20;;;27.20;88.30;;;;;;6256773;27;88005;-68
2023/07/12 15:28:06;;;;;;;2.53;2.33;;;27.20;88.40;;;;;;6262404;27;88013;-69
2023/07/12 15:31:17;;;;;;;3.25;2.58;;;27.20;88.70;;;;;;6251824;27;87336;-68
2023/07/12 15:34:20;;;;;;;2.85;2.42;;;27.20;88.80;;;;;;6245297;27;87906;-68
2023/07/12 15:37:22;;;;;;;3.95;2.80;;;27.20;89.00;;;;;;6233379;27;89370;-68
2023/07/12 15:40:50;;;;;;;3.45;2.40;;;27.10;90.00;;;;;;6265897;27;89797;-68
2023/07/12 15:43:55;;;;;;;31.02;10.75;;;27.20;89.40;;;;;;6248999;27;88929;-68
2023/07/12 15:46:57;;;;;;;27.33;10.30;;;27.20;89.50;;;;;;6252433;27;90731;-68
2023/07/12 15:49:59;;;;;;;22.02;8.82;;;27.20;89.50;;;;;;6255936;27;87948;-68
2023/07/12 15:53:02;;;;;;;17.88;7.35;;;27.20;89.60;;;;;;6253565;27;89350;-68
2023/07/12 15:56:05;;;;;;;11.85;6.18;;;27.20;89.80;;;;;;6244283;27;89171;-68
2023/07/12 15:59:10;;;;;;;10.75;5.18;;;27.20;89.90;;;;;;6247759;28;89287;-69
2023/07/12 16:02:15;;;;;;;9.25;4.65;;;27.20;90.10;;;;;;6236975;27;88541;-68